ADDS METAR Data INFO
IDs: Format: Raw Decoded Include TAF

Data at: 0158 UTC 21 Apr 2018

KGYB 210155Z AUTO 09004KT 10SM CLR 14/09 A3009 RMK AO2 T01420087
KGYB 210135Z AUTO 08005KT 10SM CLR 15/09 A3009 RMK AO2 T01500088
KGYB 210115Z AUTO 09006KT 10SM CLR 16/09 A3008 RMK AO2 T01580086
KGYB 210055Z AUTO 10004KT 10SM CLR 17/09 A3008 RMK AO2 T01660085
KGYB 210035Z AUTO 11004KT 10SM CLR 17/08 A3009 RMK AO2 T01720083
KGYB 210015Z AUTO 13004KT 10SM CLR 18/08 A3011 RMK AO2 T01750080
KGYB 202355Z AUTO 13006KT 10SM CLR 17/08 A3010 RMK AO2 T01720077 10191 20161
KGYB 202335Z AUTO 12004KT 10SM CLR 17/08 A3010 RMK AO2 T01740078
KGYB 202315Z AUTO 11006KT 080V140 10SM CLR 18/08 A3010 RMK AO2 T01750076
KGYB 202255Z AUTO 11005KT 10SM CLR 18/07 A3011 RMK AO2 T01750073
KGYB 202235Z AUTO 12006KT 10SM CLR 18/07 A3012 RMK AO2 T01770071
KGYB 202215Z AUTO 13006KT 10SM CLR 18/07 A3012 RMK AO2 T01800074
KGYB 202155Z AUTO 13005KT 10SM CLR 18/07 A3014 RMK AO2 T01810071
KGYB 202135Z AUTO 15005KT 10SM CLR 18/07 A3014 RMK AO2 T01820069
KGYB 202115Z AUTO 13008KT 10SM CLR 18/07 A3016 RMK AO2 T01810068
KGYB 202055Z AUTO 15006KT 10SM CLR 19/07 A3016 RMK AO2 T01860073
KGYB 202035Z AUTO 15007KT 10SM CLR 18/07 A3017 RMK AO2 T01840068
KGYB 202015Z AUTO 10006KT 10SM CLR 19/07 A3018 RMK AO2 T01860067
KGYB 201955Z AUTO 14005KT 10SM CLR 19/06 A3017 RMK AO2 T01880064
KGYB 201935Z AUTO 10008KT 10SM CLR 18/06 A3018 RMK AO2 T01810060
KGYB 201915Z AUTO 13008KT 10SM CLR 17/06 A3019 RMK AO2 T01710060
KGYB 201855Z AUTO 09014KT 10SM CLR 17/06 A3018 RMK AO2 T01720063
KGYB 201835Z AUTO 10010KT 10SM CLR 17/06 A3021 RMK AO2 T01740058
KGYB 201815Z AUTO 12007KT 10SM CLR 17/06 A3023 RMK AO2 T01690061
KGYB 201755Z AUTO 10010KT 10SM CLR 16/06 A3024 RMK AO2 T01610057 10161 20123
KGYB 201735Z AUTO 11007G15KT 10SM CLR 16/06 A3025 RMK AO2 T01590057
KGYB 201715Z AUTO 09011G16KT 10SM CLR 16/05 A3025 RMK AO2 T01600054
KGYB 201655Z AUTO 09013G16KT 10SM CLR 16/05 A3027 RMK AO2 T01550052
KGYB 201635Z AUTO 10011G14KT 10SM CLR 16/05 A3028 RMK AO2 T01550050
KGYB 201615Z AUTO 10008KT 10SM CLR 15/05 A3029 RMK AO2 T01530053
KGYB 201555Z AUTO 11006KT 10SM CLR 15/05 A3028 RMK AO2 T01520051
KGYB 201535Z AUTO 11007KT 10SM CLR 15/05 A3028 RMK AO2 T01540050
KGYB 201515Z AUTO 09009KT 10SM CLR 15/05 A3028 RMK AO2 T01480047
KGYB 201455Z AUTO 09012G15KT 10SM CLR 15/05 A3027 RMK AO2 T01510049
KGYB 201435Z AUTO 09008G15KT 10SM CLR 14/05 A3027 RMK AO2 T01360048
KGYB 201415Z AUTO 10010G16KT 10SM CLR 13/05 A3025 RMK AO2 T01320049
KGYB 201355Z AUTO 10010G16KT 10SM CLR 13/06 A3025 RMK AO2 T01300056
KGYB 201335Z AUTO 10010G16KT 10SM CLR 12/06 A3026 RMK AO2 T01240060
KGYB 201315Z AUTO 10009KT 10SM CLR 13/07 A3027 RMK AO2 T01250065
KGYB 201255Z AUTO 09010G14KT 10SM CLR 13/07 A3026 RMK AO2 T01250067
KGYB 201235Z AUTO 10008KT 10SM CLR 13/07 A3025 RMK AO2 T01250069
KGYB 201215Z AUTO 10006KT 10SM CLR 12/07 A3024 RMK AO2 T01240072
KGYB 201155Z AUTO 10007G14KT 10SM CLR 13/07 A3022 RMK AO2 T01250072 10140 20105
KGYB 201135Z AUTO 09006KT 10SM CLR 12/07 A3021 RMK AO2 T01220074
KGYB 201115Z AUTO 06004KT 10SM CLR 12/08 A3021 RMK AO2 T01160075
KGYB 201055Z AUTO 04004KT 10SM CLR 12/07 A3021 RMK AO2 T01180072
KGYB 201035Z AUTO 05004KT 10SM CLR 12/07 A3020 RMK AO2 T01160073
KGYB 201015Z AUTO 00000KT 10SM CLR 11/07 A3020 RMK AO2 T01140070
KGYB 200955Z AUTO 07003KT 10SM CLR 11/07 A3020 RMK AO2 T01070068
KGYB 200935Z AUTO 00000KT 10SM CLR 12/07 A3020 RMK AO2 T01150067
KGYB 200915Z AUTO 04003KT 10SM CLR 12/07 A3020 RMK AO2 T01200068
KGYB 200855Z AUTO 03003KT 10SM CLR 12/07 A3021 RMK AO2 T01220065
KGYB 200835Z AUTO 03003KT 10SM CLR 12/07 A3021 RMK AO2 T01200066
KGYB 200815Z AUTO 04003KT 10SM CLR 13/06 A3021 RMK AO2 T01260064
KGYB 200755Z AUTO 04004KT 10SM CLR 13/07 A3020 RMK AO2 T01260065
KGYB 200735Z AUTO 04003KT 10SM CLR 13/06 A3020 RMK AO2 T01310063
KGYB 200715Z AUTO 05003KT 10SM CLR 13/07 A3021 RMK AO2 T01300067
KGYB 200655Z AUTO 04003KT 10SM CLR 13/06 A3022 RMK AO2 T01340062
KGYB 200635Z AUTO 02004KT 10SM CLR 14/06 A3024 RMK AO2 T01400060
KGYB 200615Z AUTO 03004KT 10SM CLR 14/06 A3023 RMK AO2 T01400060
KGYB 200555Z AUTO 04004KT 10SM CLR 14/06 A3022 RMK AO2 T01410060 10220 20140 402420138
KGYB 200535Z AUTO 00000KT 10SM CLR 15/06 A3024 RMK AO2 T01450060
KGYB 200515Z AUTO 00000KT 10SM CLR 15/06 A3023 RMK AO2 T01470057
KGYB 200455Z AUTO 03003KT 10SM CLR 15/06 A3023 RMK AO2 T01490056
KGYB 200435Z AUTO 05004KT 10SM CLR 15/06 A3022 RMK AO2 T01490057
KGYB 200415Z AUTO 04003KT 10SM CLR 15/06 A3024 RMK AO2 T01520055
KGYB 200355Z AUTO 03004KT 10SM CLR 15/05 A3024 RMK AO2 T01530053
KGYB 200335Z AUTO 01004KT 10SM CLR 15/06 A3024 RMK AO2 T01510057
KGYB 200315Z AUTO 02004KT 10SM CLR 15/06 A3024 RMK AO2 T01520055
KGYB 200255Z AUTO 02004KT 10SM CLR 16/05 A3024 RMK AO2 T01550053
KGYB 200235Z AUTO 01003KT 10SM CLR 16/05 A3024 RMK AO2 T01610052
KGYB 200215Z AUTO 36003KT 10SM CLR 17/05 A3024 RMK AO2 T01650052
KGYB 200155Z AUTO 36003KT 10SM CLR 17/05 A3024 RMK AO2 T01710050
KGYB 200135Z AUTO 01003KT 10SM CLR 18/05 A3023 RMK AO2 T01790046
KGYB 200115Z AUTO 01005KT 10SM CLR 19/04 A3023 RMK AO2 T01870039
KGYB 200055Z AUTO 02003KT 10SM CLR 20/04 A3023 RMK AO2 T01950036
KGYB 200035Z AUTO 03004KT 10SM CLR 20/03 A3022 RMK AO2 T02030033
KGYB 200015Z AUTO 04005KT 10SM CLR 21/03 A3022 RMK AO2 T02130034
KGYB 192355Z AUTO 04006KT 10SM CLR 22/03 A3022 RMK AO2 T02200032 10242 20216
KGYB 192335Z AUTO 04003KT 10SM CLR 22/04 A3022 RMK AO2 T02170039
KGYB 192315Z AUTO 04005KT 10SM CLR 22/03 A3022 RMK AO2 T02170030
KGYB 192255Z AUTO 02005KT 10SM CLR 22/03 A3022 RMK AO2 T02240029
KGYB 192235Z AUTO 04007KT 10SM CLR 24/03 A3023 RMK AO2 T02350027
KGYB 192215Z AUTO 03008KT 10SM CLR 24/03 A3023 RMK AO2 T02400027
KGYB 192155Z AUTO 02007KT 10SM CLR 23/02 A3023 RMK AO2 T02300023
KGYB 192135Z AUTO 03008G14KT 350V060 10SM CLR 24/02 A3023 RMK AO2 T02400022
KGYB 192115Z AUTO 04008KT 10SM CLR 24/02 A3024 RMK AO2 T02380020
KGYB 192055Z AUTO 02006G14KT 10SM CLR 24/02 A3025 RMK AO2 T02350017
KGYB 192035Z AUTO 04008KT 10SM CLR 24/02 A3026 RMK AO2 T02400018
KGYB 192015Z AUTO 04008G14KT 360V070 10SM CLR 24/02 A3026 RMK AO2 T02360021
KGYB 191955Z AUTO 03010G14KT 350V060 10SM CLR 24/03 A3027 RMK AO2 T02370027
KGYB 191935Z AUTO 01009KT 10SM CLR 24/02 A3028 RMK AO2 T02360023
KGYB 191915Z AUTO 06011G16KT 10SM CLR 23/02 A3029 RMK AO2 T02340020
KGYB 191855Z AUTO 04008G14KT 010V070 10SM CLR 23/02 A3030 RMK AO2 T02310018
KGYB 191835Z AUTO 06008G17KT 020V080 10SM CLR 23/02 A3030 RMK AO2 T02270016
KGYB 191815Z AUTO 04011G18KT 010V070 10SM CLR 23/03 A3030 RMK AO2 T02300028
KGYB 191755Z AUTO 06009G15KT 020V080 10SM CLR 22/02 A3031 RMK AO2 T02240021 10225 20140
KGYB 191735Z AUTO 05010G17KT 020V080 10SM CLR 22/01 A3032 RMK AO2 T02200008
KGYB 191715Z AUTO 06010G17KT 10SM CLR 22/02 A3033 RMK AO2 T02200017
KGYB 191655Z AUTO 06009G16KT 030V090 10SM CLR 22/01 A3034 RMK AO2 T02180014
KGYB 191635Z AUTO 03012G18KT 010V070 10SM CLR 21/01 A3033 RMK AO2 T02100007
KGYB 191615Z AUTO 04006G16KT 10SM CLR 21/02 A3033 RMK AO2 T02050020
KGYB 191555Z AUTO 06010G15KT 10SM CLR 20/02 A3033 RMK AO2 T01990018
KGYB 191535Z AUTO 06010G16KT 10SM CLR 19/01 A3033 RMK AO2 T01910012
KGYB 191515Z AUTO 07013G19KT 10SM CLR 19/01 A3032 RMK AO2 T01850014
KGYB 191455Z AUTO 06008G18KT 10SM CLR 18/02 A3032 RMK AO2 T01800019
KGYB 191435Z AUTO 06008G15KT 10SM CLR 17/02 A3032 RMK AO2 T01700019
KGYB 191415Z AUTO 05011G17KT 10SM CLR 16/02 A3032 RMK AO2 T01610017